Bascom, Ohio
Current Conditions -  °F | °C
As of 7:53 AM on Thursday 23 Oct 2014 (Local Time) from KFDY Reporting Station
Moderate Fog Moderate Fog  
Wind Chill: 35°   Ceiling: 200
Heat Index: 35°   Visibility: 0.25mi
Dew Point: 32°   Wind: 0mph
Humidity: 89%   Direction: NA
Pressure: 30.24"   Gusts: NA
Location:  41.13°N, 83.29°W
Report Text: KFDY 231153Z AUTO 00000KT 1/4SM FG VV002 02/00 A3024 RMK AO2 SLP242 T00170000 10061 20011 55003
Loading
Personal Weather Stations






























Interactive Weather Map
Tropical Storm Tracking
New forecast layout! Learn more

10-Day Weather Forecast

Advertisements
Track Severe Weather on mobile